Startpagina
METAR-TAF:

METAR-TAF

Vliegvelden :

Luchthaven Haneda

Tokio-Haneda, Japan

breedte: 35-33N, lengte: 139-47E, hoogte: 5 m

Actueel weer

Dit bericht is 18 minuten geleden gemaakt, om 05:00 UTC
Wind 8 kt uit het oosten
Temperatuur 26°C
Vochtigheid 42%
Druk 1013 hPa
Zicht 10 km of meer
Weinig wolken op 4000 ft

METAR: RJTT 190500Z 10008KT 9999 FEW040 26/12 Q1013 NOSIG RMK 1CU040 A2991

Tijdstip: 14:18 (05:18 UTC)

Verwachting

Dit bericht is 6 uur en het 13 minuten geleden gemaakt, om 23:05 UTC
Verwachting geldig van 19 om 00 UTC tot 20 om 06 UTC
Wind 12 kt uit het noordoosten
Zicht 10 km of meer
Weinig wolken op 3000 ft
Verspreide wolken op 5000 ft
Wijzigt naar
van 19 om 02 UTC tot 19 om 04 UTC
Wind 12 kt uit het oosten
Wijzigt naar
van 19 om 15 UTC tot 19 om 18 UTC
Wind 8 kt uit het noordnoordoosten

TAF: RJTT 182305Z 1900/2006 04012KT 9999 FEW030 SCT050 BECMG 1902/1904 08012KT BECMG 1915/1918 02008KT

Waarnemingen en weersverwachtingen van meer dan 4000 vliegvelden (METAR en TAF).

De beschikbare stations zijn de gele en rode punten op de kaart.

Ga met uw muis naar het station om de naam te zien.

Klik dan om waarnemingen en weersverwachtingen te zien.

kaart wijzigen: klik op de groene knoppen met een zwart kruis om in te zoomen, op de groene knop met een streepje om uit te zoomen of op de groene pijlen voor aangrenzende kaarten.


METAR-TAF: